Swea City, Iowa
Current Conditions -  °F | °C
As of 7:35 AM on Saturday 25 Oct 2014 (Local Time) from KFRM Reporting Station
Clear Clear  
Wind Chill: 44°   Ceiling: Unl
Heat Index: 48°   Visibility: 10mi
Dew Point:   Wind: 9mph
Humidity: 16%   Direction: 320°NW
Pressure: 30.06"   Gusts: NA
Location:  43.38°N, 94.31°W
Report Text: KFRM 251235Z AUTO 32008KT 10SM CLR 09/M16 A3006 RMK AO1
Loading
Personal Weather Stations






























Interactive Weather Map
Tropical Storm Tracking
New forecast layout! Learn more

10-Day Weather Forecast

Advertisements
Track Severe Weather on mobile